sensor_id;sensor_type;location;lat;lon;timestamp;P1;durP1;ratioP1;P2;durP2;ratioP2
7997;SDS011;4044;49.814;7.828;2023-01-10T00:00:45;0.50;;;0.50;;
7997;SDS011;4044;49.814;7.828;2023-01-10T00:03:11;1.50;;;0.67;;
7997;SDS011;4044;49.814;7.828;2023-01-10T00:05:37;0.70;;;0.60;;
7997;SDS011;4044;49.814;7.828;2023-01-10T00:08:04;0.83;;;0.63;;
7997;SDS011;4044;49.814;7.828;2023-01-10T00:10:30;0.90;;;0.70;;
7997;SDS011;4044;49.814;7.828;2023-01-10T00:12:57;0.70;;;0.70;;
7997;SDS011;4044;49.814;7.828;2023-01-10T00:15:41;0.73;;;0.50;;
7997;SDS011;4044;49.814;7.828;2023-01-10T00:18:06;0.70;;;0.70;;
7997;SDS011;4044;49.814;7.828;2023-01-10T00:20:32;0.60;;;0.50;;
7997;SDS011;4044;49.814;7.828;2023-01-10T00:22:57;2.23;;;0.67;;
7997;SDS011;4044;49.814;7.828;2023-01-10T00:25:23;0.60;;;0.40;;
7997;SDS011;4044;49.814;7.828;2023-01-10T00:27:49;1.20;;;1.10;;
7997;SDS011;4044;49.814;7.828;2023-01-10T00:30:24;1.43;;;1.30;;
7997;SDS011;4044;49.814;7.828;2023-01-10T00:32:50;2.00;;;1.10;;
7997;SDS011;4044;49.814;7.828;2023-01-10T00:35:16;2.27;;;1.30;;
7997;SDS011;4044;49.814;7.828;2023-01-10T00:37:41;1.10;;;0.80;;
7997;SDS011;4044;49.814;7.828;2023-01-10T00:40:07;1.80;;;1.07;;
7997;SDS011;4044;49.814;7.828;2023-01-10T00:42:35;0.70;;;0.70;;
7997;SDS011;4044;49.814;7.828;2023-01-10T00:45:19;1.30;;;0.80;;
7997;SDS011;4044;49.814;7.828;2023-01-10T00:47:46;1.00;;;0.93;;
7997;SDS011;4044;49.814;7.828;2023-01-10T00:50:12;0.60;;;0.60;;
7997;SDS011;4044;49.814;7.828;2023-01-10T00:52:38;0.73;;;0.73;;
7997;SDS011;4044;49.814;7.828;2023-01-10T00:55:03;1.23;;;0.80;;
7997;SDS011;4044;49.814;7.828;2023-01-10T00:57:29;0.80;;;0.67;;
7997;SDS011;4044;49.814;7.828;2023-01-10T00:59:55;1.27;;;0.83;;
7997;SDS011;4044;49.814;7.828;2023-01-10T01:02:20;1.10;;;0.80;;
7997;SDS011;4044;49.814;7.828;2023-01-10T01:04:46;1.27;;;0.90;;
7997;SDS011;4044;49.814;7.828;2023-01-10T01:07:11;4.30;;;1.20;;
7997;SDS011;4044;49.814;7.828;2023-01-10T01:09:37;2.33;;;1.20;;
7997;SDS011;4044;49.814;7.828;2023-01-10T01:12:22;1.60;;;1.47;;
7997;SDS011;4044;49.814;7.828;2023-01-10T01:14:48;1.80;;;1.50;;
7997;SDS011;4044;49.814;7.828;2023-01-10T01:17:13;1.50;;;1.40;;
7997;SDS011;4044;49.814;7.828;2023-01-10T01:19:39;3.03;;;1.50;;
7997;SDS011;4044;49.814;7.828;2023-01-10T01:22:05;2.70;;;1.30;;
7997;SDS011;4044;49.814;7.828;2023-01-10T01:24:30;3.80;;;1.30;;
7997;SDS011;4044;49.814;7.828;2023-01-10T01:26:56;2.70;;;1.20;;
7997;SDS011;4044;49.814;7.828;2023-01-10T01:29:21;4.10;;;1.63;;
7997;SDS011;4044;49.814;7.828;2023-01-10T01:31:48;2.10;;;1.40;;
7997;SDS011;4044;49.814;7.828;2023-01-10T01:34:14;2.53;;;1.30;;
7997;SDS011;4044;49.814;7.828;2023-01-10T01:36:39;1.90;;;1.40;;
7997;SDS011;4044;49.814;7.828;2023-01-10T01:39:06;3.03;;;1.67;;
7997;SDS011;4044;49.814;7.828;2023-01-10T01:41:31;3.43;;;1.80;;
7997;SDS011;4044;49.814;7.828;2023-01-10T01:44:16;2.10;;;1.50;;
7997;SDS011;4044;49.814;7.828;2023-01-10T01:46:44;4.87;;;1.43;;
7997;SDS011;4044;49.814;7.828;2023-01-10T01:49:15;3.13;;;1.60;;
7997;SDS011;4044;49.814;7.828;2023-01-10T01:51:46;3.00;;;1.50;;
7997;SDS011;4044;49.814;7.828;2023-01-10T01:54:15;2.43;;;1.60;;
7997;SDS011;4044;49.814;7.828;2023-01-10T01:56:50;3.33;;;1.60;;
7997;SDS011;4044;49.814;7.828;2023-01-10T01:59:23;1.63;;;1.50;;
7997;SDS011;4044;49.814;7.828;2023-01-10T02:01:54;2.63;;;1.23;;
7997;SDS011;4044;49.814;7.828;2023-01-10T02:04:30;1.30;;;1.20;;
7997;SDS011;4044;49.814;7.828;2023-01-10T02:07:04;2.33;;;1.50;;
7997;SDS011;4044;49.814;7.828;2023-01-10T02:09:38;3.27;;;1.50;;
7997;SDS011;4044;49.814;7.828;2023-01-10T02:12:09;3.10;;;1.70;;
7997;SDS011;4044;49.814;7.828;2023-01-10T02:14:35;1.97;;;1.63;;
7997;SDS011;4044;49.814;7.828;2023-01-10T02:17:02;2.10;;;1.70;;
7997;SDS011;4044;49.814;7.828;2023-01-10T02:28:09;6.30;;;1.80;;
7997;SDS011;4044;49.814;7.828;2023-01-10T02:31:14;4.03;;;1.60;;
7997;SDS011;4044;49.814;7.828;2023-01-10T02:37:00;2.07;;;1.80;;
7997;SDS011;4044;49.814;7.828;2023-01-10T02:39:54;4.57;;;1.70;;
7997;SDS011;4044;49.814;7.828;2023-01-10T02:42:26;3.53;;;1.80;;
7997;SDS011;4044;49.814;7.828;2023-01-10T02:44:59;4.57;;;2.07;;
7997;SDS011;4044;49.814;7.828;2023-01-10T02:47:36;3.17;;;1.70;;
7997;SDS011;4044;49.814;7.828;2023-01-10T02:50:21;2.63;;;1.40;;
7997;SDS011;4044;49.814;7.828;2023-01-10T02:52:54;5.00;;;1.80;;
7997;SDS011;4044;49.814;7.828;2023-01-10T02:55:27;4.53;;;1.80;;
7997;SDS011;4044;49.814;7.828;2023-01-10T02:58:47;4.07;;;2.03;;
7997;SDS011;4044;49.814;7.828;2023-01-10T03:00:56;4.43;;;2.13;;
7997;SDS011;4044;49.814;7.828;2023-01-10T03:03:46;2.97;;;1.90;;
7997;SDS011;4044;49.814;7.828;2023-01-10T03:06:23;5.23;;;2.10;;
7997;SDS011;4044;49.814;7.828;2023-01-10T03:09:07;4.67;;;2.17;;
7997;SDS011;4044;49.814;7.828;2023-01-10T03:11:40;4.90;;;2.43;;
7997;SDS011;4044;49.814;7.828;2023-01-10T03:14:18;3.93;;;2.00;;
7997;SDS011;4044;49.814;7.828;2023-01-10T03:16:51;5.63;;;2.30;;
7997;SDS011;4044;49.814;7.828;2023-01-10T03:19:19;6.90;;;2.70;;
7997;SDS011;4044;49.814;7.828;2023-01-10T03:21:48;5.47;;;2.53;;
7997;SDS011;4044;49.814;7.828;2023-01-10T03:24:18;3.53;;;2.63;;
7997;SDS011;4044;49.814;7.828;2023-01-10T03:26:51;4.43;;;2.37;;
7997;SDS011;4044;49.814;7.828;2023-01-10T03:29:27;7.67;;;2.67;;
7997;SDS011;4044;49.814;7.828;2023-01-10T03:31:59;4.00;;;2.33;;
7997;SDS011;4044;49.814;7.828;2023-01-10T03:34:28;5.63;;;2.30;;
7997;SDS011;4044;49.814;7.828;2023-01-10T03:37:00;5.33;;;2.73;;
7997;SDS011;4044;49.814;7.828;2023-01-10T03:42:24;4.67;;;2.90;;
7997;SDS011;4044;49.814;7.828;2023-01-10T03:45:16;5.83;;;2.57;;
7997;SDS011;4044;49.814;7.828;2023-01-10T03:47:49;7.80;;;3.43;;
7997;SDS011;4044;49.814;7.828;2023-01-10T03:50:19;9.90;;;3.23;;
7997;SDS011;4044;49.814;7.828;2023-01-10T03:52:47;8.23;;;3.13;;
7997;SDS011;4044;49.814;7.828;2023-01-10T03:55:14;7.40;;;3.23;;
7997;SDS011;4044;49.814;7.828;2023-01-10T03:57:43;7.17;;;2.80;;
7997;SDS011;4044;49.814;7.828;2023-01-10T04:00:13;6.40;;;2.63;;
7997;SDS011;4044;49.814;7.828;2023-01-10T04:02:40;6.50;;;2.90;;
7997;SDS011;4044;49.814;7.828;2023-01-10T04:05:05;5.93;;;2.90;;
7997;SDS011;4044;49.814;7.828;2023-01-10T04:07:31;8.57;;;3.07;;
7997;SDS011;4044;49.814;7.828;2023-01-10T04:09:57;5.37;;;2.83;;
7997;SDS011;4044;49.814;7.828;2023-01-10T04:12:23;7.10;;;3.03;;
7997;SDS011;4044;49.814;7.828;2023-01-10T04:14:49;5.57;;;2.90;;
7997;SDS011;4044;49.814;7.828;2023-01-10T04:17:15;4.50;;;2.77;;
7997;SDS011;4044;49.814;7.828;2023-01-10T04:19:41;5.33;;;2.80;;
7997;SDS011;4044;49.814;7.828;2023-01-10T04:22:07;7.93;;;2.90;;
7997;SDS011;4044;49.814;7.828;2023-01-10T04:24:33;5.67;;;2.57;;
7997;SDS011;4044;49.814;7.828;2023-01-10T04:26:59;6.47;;;2.70;;
7997;SDS011;4044;49.814;7.828;2023-01-10T04:29:24;5.97;;;2.73;;
7997;SDS011;4044;49.814;7.828;2023-01-10T04:31:51;8.53;;;3.07;;
7997;SDS011;4044;49.814;7.828;2023-01-10T04:34:16;6.13;;;2.60;;
7997;SDS011;4044;49.814;7.828;2023-01-10T04:36:44;5.37;;;2.83;;
7997;SDS011;4044;49.814;7.828;2023-01-10T04:39:10;8.33;;;2.80;;
7997;SDS011;4044;49.814;7.828;2023-01-10T04:41:36;7.97;;;2.87;;
7997;SDS011;4044;49.814;7.828;2023-01-10T04:44:02;7.33;;;2.60;;
7997;SDS011;4044;49.814;7.828;2023-01-10T04:46:27;6.83;;;2.70;;
7997;SDS011;4044;49.814;7.828;2023-01-10T04:48:53;6.50;;;2.90;;
7997;SDS011;4044;49.814;7.828;2023-01-10T04:51:19;6.10;;;2.60;;
7997;SDS011;4044;49.814;7.828;2023-01-10T04:53:45;4.87;;;2.77;;
7997;SDS011;4044;49.814;7.828;2023-01-10T04:56:13;7.07;;;2.53;;
7997;SDS011;4044;49.814;7.828;2023-01-10T04:58:40;8.13;;;2.70;;
7997;SDS011;4044;49.814;7.828;2023-01-10T05:01:07;5.83;;;2.63;;
7997;SDS011;4044;49.814;7.828;2023-01-10T05:03:36;7.93;;;2.37;;
7997;SDS011;4044;49.814;7.828;2023-01-10T05:06:02;6.93;;;2.53;;
7997;SDS011;4044;49.814;7.828;2023-01-10T05:08:28;6.90;;;2.97;;
7997;SDS011;4044;49.814;7.828;2023-01-10T05:10:54;7.83;;;3.50;;
7997;SDS011;4044;49.814;7.828;2023-01-10T05:13:19;7.17;;;2.60;;
7997;SDS011;4044;49.814;7.828;2023-01-10T05:15:45;7.47;;;3.27;;
7997;SDS011;4044;49.814;7.828;2023-01-10T05:18:10;6.13;;;2.47;;
7997;SDS011;4044;49.814;7.828;2023-01-10T05:20:36;6.53;;;2.17;;
7997;SDS011;4044;49.814;7.828;2023-01-10T05:23:01;5.93;;;2.73;;
7997;SDS011;4044;49.814;7.828;2023-01-10T05:25:27;10.30;;;2.90;;
7997;SDS011;4044;49.814;7.828;2023-01-10T05:27:52;5.87;;;2.23;;
7997;SDS011;4044;49.814;7.828;2023-01-10T05:30:19;9.20;;;2.27;;
7997;SDS011;4044;49.814;7.828;2023-01-10T05:32:44;6.60;;;2.17;;
7997;SDS011;4044;49.814;7.828;2023-01-10T05:35:10;7.37;;;2.40;;
7997;SDS011;4044;49.814;7.828;2023-01-10T05:37:35;5.03;;;2.20;;
7997;SDS011;4044;49.814;7.828;2023-01-10T05:40:01;10.73;;;2.70;;
7997;SDS011;4044;49.814;7.828;2023-01-10T05:42:27;8.57;;;2.23;;
7997;SDS011;4044;49.814;7.828;2023-01-10T05:44:53;7.37;;;2.60;;
7997;SDS011;4044;49.814;7.828;2023-01-10T05:47:18;13.37;;;2.70;;
7997;SDS011;4044;49.814;7.828;2023-01-10T05:49:44;8.50;;;2.77;;
7997;SDS011;4044;49.814;7.828;2023-01-10T05:52:09;6.23;;;2.40;;
7997;SDS011;4044;49.814;7.828;2023-01-10T05:54:35;4.30;;;2.03;;
7997;SDS011;4044;49.814;7.828;2023-01-10T05:57:00;7.43;;;2.13;;
7997;SDS011;4044;49.814;7.828;2023-01-10T05:59:26;6.87;;;2.73;;
7997;SDS011;4044;49.814;7.828;2023-01-10T06:01:51;6.27;;;2.97;;
7997;SDS011;4044;49.814;7.828;2023-01-10T06:04:17;5.10;;;2.70;;
7997;SDS011;4044;49.814;7.828;2023-01-10T06:06:42;4.73;;;2.60;;
7997;SDS011;4044;49.814;7.828;2023-01-10T06:09:08;6.90;;;2.23;;
7997;SDS011;4044;49.814;7.828;2023-01-10T06:11:33;6.13;;;2.60;;
7997;SDS011;4044;49.814;7.828;2023-01-10T06:14:02;5.37;;;2.47;;
7997;SDS011;4044;49.814;7.828;2023-01-10T06:16:28;8.03;;;4.07;;
7997;SDS011;4044;49.814;7.828;2023-01-10T06:18:54;7.13;;;2.60;;
7997;SDS011;4044;49.814;7.828;2023-01-10T06:21:19;8.17;;;4.60;;
7997;SDS011;4044;49.814;7.828;2023-01-10T06:23:45;9.47;;;3.87;;
7997;SDS011;4044;49.814;7.828;2023-01-10T06:26:11;7.80;;;2.53;;
7997;SDS011;4044;49.814;7.828;2023-01-10T06:28:36;7.80;;;2.20;;
7997;SDS011;4044;49.814;7.828;2023-01-10T06:31:04;5.20;;;2.30;;
7997;SDS011;4044;49.814;7.828;2023-01-10T06:33:31;11.43;;;2.97;;
7997;SDS011;4044;49.814;7.828;2023-01-10T06:35:56;8.03;;;2.43;;
7997;SDS011;4044;49.814;7.828;2023-01-10T06:38:22;9.47;;;2.87;;
7997;SDS011;4044;49.814;7.828;2023-01-10T06:40:47;9.10;;;2.77;;
7997;SDS011;4044;49.814;7.828;2023-01-10T06:43:13;8.93;;;3.00;;
7997;SDS011;4044;49.814;7.828;2023-01-10T06:45:38;6.67;;;2.60;;
7997;SDS011;4044;49.814;7.828;2023-01-10T06:48:04;10.57;;;2.67;;
7997;SDS011;4044;49.814;7.828;2023-01-10T06:50:29;11.67;;;2.83;;
7997;SDS011;4044;49.814;7.828;2023-01-10T06:53:02;8.67;;;3.00;;
7997;SDS011;4044;49.814;7.828;2023-01-10T06:55:28;7.30;;;2.80;;
7997;SDS011;4044;49.814;7.828;2023-01-10T06:57:58;7.13;;;2.43;;
7997;SDS011;4044;49.814;7.828;2023-01-10T07:00:25;9.10;;;3.10;;
7997;SDS011;4044;49.814;7.828;2023-01-10T07:02:53;8.73;;;2.70;;
7997;SDS011;4044;49.814;7.828;2023-01-10T07:05:21;10.13;;;3.40;;
7997;SDS011;4044;49.814;7.828;2023-01-10T07:07:47;12.17;;;3.13;;
7997;SDS011;4044;49.814;7.828;2023-01-10T07:10:12;10.40;;;3.00;;
7997;SDS011;4044;49.814;7.828;2023-01-10T07:12:38;11.43;;;3.10;;
7997;SDS011;4044;49.814;7.828;2023-01-10T07:15:04;8.07;;;2.83;;
7997;SDS011;4044;49.814;7.828;2023-01-10T07:17:30;13.93;;;3.50;;
7997;SDS011;4044;49.814;7.828;2023-01-10T07:19:55;7.97;;;2.70;;
7997;SDS011;4044;49.814;7.828;2023-01-10T07:22:21;10.07;;;3.00;;
7997;SDS011;4044;49.814;7.828;2023-01-10T07:24:46;7.37;;;2.37;;
7997;SDS011;4044;49.814;7.828;2023-01-10T07:27:12;10.67;;;2.60;;
7997;SDS011;4044;49.814;7.828;2023-01-10T07:29:38;8.67;;;2.97;;
7997;SDS011;4044;49.814;7.828;2023-01-10T07:32:03;9.50;;;2.73;;
7997;SDS011;4044;49.814;7.828;2023-01-10T07:34:30;10.70;;;3.20;;
7997;SDS011;4044;49.814;7.828;2023-01-10T07:36:55;6.23;;;2.50;;
7997;SDS011;4044;49.814;7.828;2023-01-10T07:39:21;9.07;;;3.00;;
7997;SDS011;4044;49.814;7.828;2023-01-10T07:41:47;9.33;;;2.37;;
7997;SDS011;4044;49.814;7.828;2023-01-10T07:44:13;11.57;;;2.77;;
7997;SDS011;4044;49.814;7.828;2023-01-10T07:46:39;12.90;;;2.83;;
7997;SDS011;4044;49.814;7.828;2023-01-10T07:49:04;9.57;;;2.83;;
7997;SDS011;4044;49.814;7.828;2023-01-10T07:51:30;10.47;;;2.80;;
7997;SDS011;4044;49.814;7.828;2023-01-10T07:53:56;9.07;;;3.50;;
7997;SDS011;4044;49.814;7.828;2023-01-10T07:56:21;6.97;;;2.50;;
7997;SDS011;4044;49.814;7.828;2023-01-10T07:58:47;8.47;;;2.40;;
7997;SDS011;4044;49.814;7.828;2023-01-10T08:01:12;9.37;;;2.70;;
7997;SDS011;4044;49.814;7.828;2023-01-10T08:03:38;9.53;;;2.50;;
7997;SDS011;4044;49.814;7.828;2023-01-10T08:06:05;8.27;;;2.57;;
7997;SDS011;4044;49.814;7.828;2023-01-10T08:08:32;11.00;;;3.20;;
7997;SDS011;4044;49.814;7.828;2023-01-10T08:10:58;10.87;;;2.63;;
7997;SDS011;4044;49.814;7.828;2023-01-10T08:13:26;7.13;;;2.33;;
7997;SDS011;4044;49.814;7.828;2023-01-10T08:15:52;12.47;;;2.70;;
7997;SDS011;4044;49.814;7.828;2023-01-10T08:18:19;8.43;;;2.40;;
7997;SDS011;4044;49.814;7.828;2023-01-10T08:20:47;6.80;;;2.70;;
7997;SDS011;4044;49.814;7.828;2023-01-10T08:23:13;7.97;;;2.40;;
7997;SDS011;4044;49.814;7.828;2023-01-10T08:25:39;10.57;;;2.53;;
7997;SDS011;4044;49.814;7.828;2023-01-10T08:28:05;11.30;;;2.87;;
7997;SDS011;4044;49.814;7.828;2023-01-10T08:30:30;8.70;;;2.87;;
7997;SDS011;4044;49.814;7.828;2023-01-10T08:32:56;9.03;;;2.53;;
7997;SDS011;4044;49.814;7.828;2023-01-10T08:35:22;7.50;;;2.80;;
7997;SDS011;4044;49.814;7.828;2023-01-10T08:37:47;6.70;;;2.60;;
7997;SDS011;4044;49.814;7.828;2023-01-10T08:40:13;12.83;;;2.30;;
7997;SDS011;4044;49.814;7.828;2023-01-10T08:42:38;10.80;;;2.73;;
7997;SDS011;4044;49.814;7.828;2023-01-10T08:45:04;9.50;;;2.40;;
7997;SDS011;4044;49.814;7.828;2023-01-10T08:47:30;8.63;;;2.70;;
7997;SDS011;4044;49.814;7.828;2023-01-10T08:49:55;9.73;;;2.70;;
7997;SDS011;4044;49.814;7.828;2023-01-10T08:52:21;10.30;;;2.50;;
7997;SDS011;4044;49.814;7.828;2023-01-10T08:54:46;8.57;;;2.50;;
7997;SDS011;4044;49.814;7.828;2023-01-10T08:57:12;12.03;;;3.10;;
7997;SDS011;4044;49.814;7.828;2023-01-10T08:59:38;9.63;;;2.77;;
7997;SDS011;4044;49.814;7.828;2023-01-10T09:02:03;10.03;;;2.90;;
7997;SDS011;4044;49.814;7.828;2023-01-10T09:04:29;7.97;;;2.67;;
7997;SDS011;4044;49.814;7.828;2023-01-10T09:06:55;6.43;;;2.57;;
7997;SDS011;4044;49.814;7.828;2023-01-10T09:09:21;11.10;;;2.90;;
7997;SDS011;4044;49.814;7.828;2023-01-10T09:11:46;8.70;;;2.80;;
7997;SDS011;4044;49.814;7.828;2023-01-10T09:14:12;7.53;;;2.90;;
7997;SDS011;4044;49.814;7.828;2023-01-10T09:16:39;8.43;;;2.53;;
7997;SDS011;4044;49.814;7.828;2023-01-10T09:19:04;7.53;;;2.60;;
7997;SDS011;4044;49.814;7.828;2023-01-10T09:21:30;8.97;;;2.70;;
7997;SDS011;4044;49.814;7.828;2023-01-10T09:23:55;9.47;;;3.13;;
7997;SDS011;4044;49.814;7.828;2023-01-10T09:26:21;7.77;;;2.90;;
7997;SDS011;4044;49.814;7.828;2023-01-10T09:28:47;9.63;;;3.10;;
7997;SDS011;4044;49.814;7.828;2023-01-10T09:31:13;10.00;;;3.07;;
7997;SDS011;4044;49.814;7.828;2023-01-10T09:33:39;22.73;;;3.80;;
7997;SDS011;4044;49.814;7.828;2023-01-10T09:36:08;9.67;;;2.90;;
7997;SDS011;4044;49.814;7.828;2023-01-10T09:38:35;11.47;;;3.30;;
7997;SDS011;4044;49.814;7.828;2023-01-10T09:41:05;10.47;;;2.53;;
7997;SDS011;4044;49.814;7.828;2023-01-10T09:49:43;9.40;;;2.93;;
7997;SDS011;4044;49.814;7.828;2023-01-10T09:52:33;8.30;;;2.83;;
7997;SDS011;4044;49.814;7.828;2023-01-10T09:55:15;10.47;;;3.03;;
7997;SDS011;4044;49.814;7.828;2023-01-10T09:57:47;12.43;;;3.73;;
7997;SDS011;4044;49.814;7.828;2023-01-10T10:00:19;6.17;;;2.70;;
7997;SDS011;4044;49.814;7.828;2023-01-10T10:02:55;17.23;;;3.40;;
7997;SDS011;4044;49.814;7.828;2023-01-10T10:05:25;6.63;;;3.03;;
7997;SDS011;4044;49.814;7.828;2023-01-10T10:07:53;10.17;;;2.50;;
7997;SDS011;4044;49.814;7.828;2023-01-10T10:10:25;7.70;;;2.97;;
7997;SDS011;4044;49.814;7.828;2023-01-10T10:12:59;7.97;;;2.83;;
7997;SDS011;4044;49.814;7.828;2023-01-10T10:18:37;10.20;;;2.87;;
7997;SDS011;4044;49.814;7.828;2023-01-10T10:21:22;11.23;;;3.00;;
7997;SDS011;4044;49.814;7.828;2023-01-10T10:24:16;8.43;;;2.90;;
7997;SDS011;4044;49.814;7.828;2023-01-10T10:32:27;8.23;;;2.70;;
7997;SDS011;4044;49.814;7.828;2023-01-10T10:35:12;11.23;;;2.60;;
7997;SDS011;4044;49.814;7.828;2023-01-10T10:37:48;10.23;;;3.60;;
7997;SDS011;4044;49.814;7.828;2023-01-10T10:40:20;10.23;;;3.20;;
7997;SDS011;4044;49.814;7.828;2023-01-10T10:42:50;7.37;;;2.67;;
7997;SDS011;4044;49.814;7.828;2023-01-10T10:45:20;9.07;;;2.60;;
7997;SDS011;4044;49.814;7.828;2023-01-10T10:48:09;9.27;;;2.80;;
7997;SDS011;4044;49.814;7.828;2023-01-10T10:51:07;8.87;;;2.80;;
7997;SDS011;4044;49.814;7.828;2023-01-10T10:53:37;8.27;;;3.00;;
7997;SDS011;4044;49.814;7.828;2023-01-10T10:56:04;8.60;;;2.60;;
7997;SDS011;4044;49.814;7.828;2023-01-10T10:58:31;9.27;;;2.90;;
7997;SDS011;4044;49.814;7.828;2023-01-10T11:00:58;9.03;;;2.97;;
7997;SDS011;4044;49.814;7.828;2023-01-10T11:03:26;9.70;;;3.03;;
7997;SDS011;4044;49.814;7.828;2023-01-10T11:06:04;10.27;;;3.00;;
7997;SDS011;4044;49.814;7.828;2023-01-10T11:08:32;9.80;;;2.83;;
7997;SDS011;4044;49.814;7.828;2023-01-10T11:11:01;11.57;;;3.23;;
7997;SDS011;4044;49.814;7.828;2023-01-10T11:15:59;11.90;;;3.03;;
7997;SDS011;4044;49.814;7.828;2023-01-10T11:18:26;11.87;;;2.97;;
7997;SDS011;4044;49.814;7.828;2023-01-10T11:25:53;7.47;;;2.67;;
7997;SDS011;4044;49.814;7.828;2023-01-10T11:28:21;7.93;;;2.70;;
7997;SDS011;4044;49.814;7.828;2023-01-10T11:30:50;8.23;;;2.60;;
7997;SDS011;4044;49.814;7.828;2023-01-10T11:33:17;10.20;;;3.27;;
7997;SDS011;4044;49.814;7.828;2023-01-10T11:35:56;10.53;;;2.70;;
7997;SDS011;4044;49.814;7.828;2023-01-10T11:38:24;9.13;;;2.90;;
7997;SDS011;4044;49.814;7.828;2023-01-10T11:43:23;7.53;;;3.33;;
7997;SDS011;4044;49.814;7.828;2023-01-10T11:45:54;11.47;;;3.30;;
7997;SDS011;4044;49.814;7.828;2023-01-10T11:51:15;8.60;;;3.30;;
7997;SDS011;4044;49.814;7.828;2023-01-10T11:53:45;8.60;;;3.67;;
7997;SDS011;4044;49.814;7.828;2023-01-10T11:56:13;13.77;;;4.20;;
7997;SDS011;4044;49.814;7.828;2023-01-10T11:58:46;9.27;;;4.20;;
7997;SDS011;4044;49.814;7.828;2023-01-10T12:01:25;14.23;;;4.80;;
7997;SDS011;4044;49.814;7.828;2023-01-10T12:03:53;10.47;;;4.07;;
7997;SDS011;4044;49.814;7.828;2023-01-10T12:06:19;12.83;;;4.03;;
7997;SDS011;4044;49.814;7.828;2023-01-10T12:08:45;10.33;;;3.90;;
7997;SDS011;4044;49.814;7.828;2023-01-10T12:11:30;14.73;;;4.50;;
7997;SDS011;4044;49.814;7.828;2023-01-10T12:13:58;11.43;;;3.97;;
7997;SDS011;4044;49.814;7.828;2023-01-10T12:16:32;12.93;;;4.67;;
7997;SDS011;4044;49.814;7.828;2023-01-10T12:18:59;14.37;;;4.73;;
7997;SDS011;4044;49.814;7.828;2023-01-10T12:21:43;15.60;;;4.00;;
7997;SDS011;4044;49.814;7.828;2023-01-10T12:24:22;12.53;;;4.47;;
7997;SDS011;4044;49.814;7.828;2023-01-10T12:26:52;15.70;;;4.00;;
7997;SDS011;4044;49.814;7.828;2023-01-10T12:29:30;11.07;;;3.47;;
7997;SDS011;4044;49.814;7.828;2023-01-10T12:31:59;11.33;;;3.50;;
7997;SDS011;4044;49.814;7.828;2023-01-10T12:34:46;10.07;;;3.57;;
7997;SDS011;4044;49.814;7.828;2023-01-10T12:37:21;8.47;;;3.00;;
7997;SDS011;4044;49.814;7.828;2023-01-10T12:40:10;13.33;;;3.57;;
7997;SDS011;4044;49.814;7.828;2023-01-10T12:42:51;7.87;;;3.40;;
7997;SDS011;4044;49.814;7.828;2023-01-10T12:45:41;14.97;;;3.50;;
7997;SDS011;4044;49.814;7.828;2023-01-10T12:48:19;12.23;;;3.57;;
7997;SDS011;4044;49.814;7.828;2023-01-10T12:50:55;13.03;;;3.80;;
7997;SDS011;4044;49.814;7.828;2023-01-10T12:53:27;8.13;;;3.10;;
7997;SDS011;4044;49.814;7.828;2023-01-10T12:56:04;13.70;;;3.80;;
7997;SDS011;4044;49.814;7.828;2023-01-10T13:01:13;15.53;;;3.70;;
7997;SDS011;4044;49.814;7.828;2023-01-10T13:03:54;10.50;;;3.50;;
7997;SDS011;4044;49.814;7.828;2023-01-10T13:06:32;10.00;;;3.20;;
7997;SDS011;4044;49.814;7.828;2023-01-10T13:09:05;12.47;;;3.80;;
7997;SDS011;4044;49.814;7.828;2023-01-10T13:11:35;12.17;;;3.60;;
7997;SDS011;4044;49.814;7.828;2023-01-10T13:14:06;15.23;;;3.70;;
7997;SDS011;4044;49.814;7.828;2023-01-10T13:21:34;13.30;;;3.33;;
7997;SDS011;4044;49.814;7.828;2023-01-10T13:24:03;12.17;;;2.97;;
7997;SDS011;4044;49.814;7.828;2023-01-10T13:29:25;15.30;;;3.87;;
7997;SDS011;4044;49.814;7.828;2023-01-10T13:32:00;15.13;;;3.63;;
7997;SDS011;4044;49.814;7.828;2023-01-10T13:34:32;10.33;;;3.47;;
7997;SDS011;4044;49.814;7.828;2023-01-10T13:37:03;12.30;;;3.40;;
7997;SDS011;4044;49.814;7.828;2023-01-10T13:39:53;14.60;;;3.50;;
7997;SDS011;4044;49.814;7.828;2023-01-10T13:58:09;15.13;;;4.17;;
7997;SDS011;4044;49.814;7.828;2023-01-10T14:01:32;9.70;;;3.20;;
7997;SDS011;4044;49.814;7.828;2023-01-10T14:04:20;11.83;;;3.93;;
7997;SDS011;4044;49.814;7.828;2023-01-10T14:07:00;15.50;;;3.43;;
7997;SDS011;4044;49.814;7.828;2023-01-10T14:09:43;8.20;;;2.83;;
7997;SDS011;4044;49.814;7.828;2023-01-10T14:14:55;13.53;;;3.43;;
7997;SDS011;4044;49.814;7.828;2023-01-10T14:17:31;11.60;;;3.73;;
7997;SDS011;4044;49.814;7.828;2023-01-10T14:20:19;13.13;;;4.03;;
7997;SDS011;4044;49.814;7.828;2023-01-10T14:23:00;12.10;;;3.60;;
7997;SDS011;4044;49.814;7.828;2023-01-10T14:25:51;12.77;;;3.60;;
7997;SDS011;4044;49.814;7.828;2023-01-10T14:28:25;11.47;;;3.83;;
7997;SDS011;4044;49.814;7.828;2023-01-10T14:33:30;13.80;;;3.37;;
7997;SDS011;4044;49.814;7.828;2023-01-10T14:35:58;14.50;;;3.70;;
7997;SDS011;4044;49.814;7.828;2023-01-10T14:38:28;10.70;;;3.70;;
7997;SDS011;4044;49.814;7.828;2023-01-10T14:40:59;10.80;;;3.97;;
7997;SDS011;4044;49.814;7.828;2023-01-10T14:43:30;17.60;;;4.57;;
7997;SDS011;4044;49.814;7.828;2023-01-10T14:48:39;12.33;;;3.90;;
7997;SDS011;4044;49.814;7.828;2023-01-10T14:53:55;11.63;;;4.30;;
7997;SDS011;4044;49.814;7.828;2023-01-10T14:56:34;9.93;;;3.70;;
7997;SDS011;4044;49.814;7.828;2023-01-10T15:01:56;23.97;;;10.73;;
7997;SDS011;4044;49.814;7.828;2023-01-10T15:04:25;11.23;;;4.77;;
7997;SDS011;4044;49.814;7.828;2023-01-10T15:06:57;15.37;;;3.87;;
7997;SDS011;4044;49.814;7.828;2023-01-10T15:09:26;7.83;;;3.37;;
7997;SDS011;4044;49.814;7.828;2023-01-10T15:11:53;11.30;;;4.40;;
7997;SDS011;4044;49.814;7.828;2023-01-10T15:14:19;9.83;;;3.00;;
7997;SDS011;4044;49.814;7.828;2023-01-10T15:16:49;10.47;;;3.53;;
7997;SDS011;4044;49.814;7.828;2023-01-10T15:19:18;9.17;;;2.97;;
7997;SDS011;4044;49.814;7.828;2023-01-10T15:21:46;12.63;;;3.40;;
7997;SDS011;4044;49.814;7.828;2023-01-10T15:27:11;13.43;;;3.57;;
7997;SDS011;4044;49.814;7.828;2023-01-10T15:29:39;11.67;;;2.90;;
7997;SDS011;4044;49.814;7.828;2023-01-10T15:34:59;8.63;;;2.73;;
7997;SDS011;4044;49.814;7.828;2023-01-10T15:37:27;10.03;;;3.13;;
7997;SDS011;4044;49.814;7.828;2023-01-10T15:39:58;12.03;;;2.87;;
7997;SDS011;4044;49.814;7.828;2023-01-10T15:42:24;11.03;;;3.53;;
7997;SDS011;4044;49.814;7.828;2023-01-10T15:44:50;16.53;;;3.53;;
7997;SDS011;4044;49.814;7.828;2023-01-10T15:50:25;8.27;;;2.57;;
7997;SDS011;4044;49.814;7.828;2023-01-10T15:53:06;10.50;;;2.90;;
7997;SDS011;4044;49.814;7.828;2023-01-10T15:55:34;7.70;;;3.00;;
7997;SDS011;4044;49.814;7.828;2023-01-10T15:58:01;9.27;;;2.60;;
7997;SDS011;4044;49.814;7.828;2023-01-10T16:00:28;11.10;;;2.80;;
7997;SDS011;4044;49.814;7.828;2023-01-10T16:02:54;8.77;;;3.00;;
7997;SDS011;4044;49.814;7.828;2023-01-10T16:05:21;9.20;;;2.60;;
7997;SDS011;4044;49.814;7.828;2023-01-10T16:07:47;9.30;;;2.73;;
7997;SDS011;4044;49.814;7.828;2023-01-10T16:10:20;10.57;;;2.50;;
7997;SDS011;4044;49.814;7.828;2023-01-10T16:12:50;6.30;;;2.60;;
7997;SDS011;4044;49.814;7.828;2023-01-10T16:15:36;18.00;;;9.23;;
7997;SDS011;4044;49.814;7.828;2023-01-10T16:18:05;11.93;;;6.13;;
7997;SDS011;4044;49.814;7.828;2023-01-10T16:20:33;14.03;;;5.03;;
7997;SDS011;4044;49.814;7.828;2023-01-10T16:23:01;10.13;;;4.77;;
7997;SDS011;4044;49.814;7.828;2023-01-10T16:25:38;20.23;;;6.17;;
7997;SDS011;4044;49.814;7.828;2023-01-10T16:28:09;18.30;;;7.53;;
7997;SDS011;4044;49.814;7.828;2023-01-10T16:30:36;15.00;;;7.33;;
7997;SDS011;4044;49.814;7.828;2023-01-10T16:33:25;16.10;;;7.07;;
7997;SDS011;4044;49.814;7.828;2023-01-10T16:35:56;31.83;;;18.13;;
7997;SDS011;4044;49.814;7.828;2023-01-10T16:38:24;33.23;;;18.13;;
7997;SDS011;4044;49.814;7.828;2023-01-10T16:40:57;11.87;;;4.63;;
7997;SDS011;4044;49.814;7.828;2023-01-10T16:43:45;17.83;;;7.20;;
7997;SDS011;4044;49.814;7.828;2023-01-10T16:46:12;7.10;;;2.83;;
7997;SDS011;4044;49.814;7.828;2023-01-10T16:48:38;8.90;;;4.30;;
7997;SDS011;4044;49.814;7.828;2023-01-10T16:51:14;9.07;;;3.53;;
7997;SDS011;4044;49.814;7.828;2023-01-10T16:53:42;13.67;;;3.70;;
7997;SDS011;4044;49.814;7.828;2023-01-10T16:56:09;8.53;;;2.70;;
7997;SDS011;4044;49.814;7.828;2023-01-10T16:58:38;10.60;;;3.33;;